createdAt,value
2023-04-06T00:02:14.779Z,12.95
2023-04-06T00:05:02.293Z,12.25
2023-04-06T00:07:51.202Z,11.15
2023-04-06T00:10:38.688Z,11.98
2023-04-06T00:13:27.245Z,14.60
2023-04-06T00:16:14.691Z,14.93
2023-04-06T00:19:02.202Z,14.38
2023-04-06T00:21:49.661Z,14.23
2023-04-06T00:24:37.881Z,15.63
2023-04-06T00:27:25.775Z,14.80
2023-04-06T00:30:13.360Z,14.95
2023-04-06T00:33:03.166Z,13.60
2023-04-06T00:35:57.317Z,14.50
2023-04-06T00:38:46.971Z,14.38
2023-04-06T00:41:34.764Z,13.35
2023-04-06T00:44:23.074Z,13.35
2023-04-06T00:47:11.347Z,11.48
2023-04-06T00:49:58.571Z,13.93
2023-04-06T00:52:45.900Z,13.05
2023-04-06T00:55:33.370Z,15.82
2023-04-06T00:58:20.668Z,12.48
2023-04-06T01:01:08.201Z,12.95
2023-04-06T01:03:56.662Z,11.63
2023-04-06T01:06:43.952Z,12.15
2023-04-06T01:09:32.206Z,11.88
2023-04-06T01:12:19.845Z,12.27
2023-04-06T01:15:08.306Z,13.60
2023-04-06T01:17:55.819Z,13.77
2023-04-06T01:20:45.198Z,13.43
2023-04-06T01:23:32.476Z,12.70
2023-04-06T01:26:19.667Z,11.32
2023-04-06T01:29:07.146Z,11.13
2023-04-06T01:31:54.995Z,12.93
2023-04-06T01:34:42.500Z,12.23
2023-04-06T01:37:33.918Z,11.40
2023-04-06T01:40:21.839Z,11.75
2023-04-06T01:43:09.057Z,13.35
2023-04-06T01:45:59.442Z,13.25
2023-04-06T01:48:46.662Z,13.13
2023-04-06T01:51:33.942Z,12.20
2023-04-06T01:54:27.737Z,12.10
2023-04-06T01:57:15.317Z,12.63
2023-04-06T02:00:02.724Z,12.65
2023-04-06T02:02:50.069Z,12.95
2023-04-06T02:05:39.208Z,12.00
2023-04-06T02:08:28.650Z,13.35
2023-04-06T02:11:18.953Z,12.20
2023-04-06T02:14:07.670Z,12.30
2023-04-06T02:16:55.379Z,12.30
2023-04-06T02:20:02.247Z,12.38
2023-04-06T02:22:49.678Z,12.15
2023-04-06T02:25:36.950Z,13.23
2023-04-06T02:28:24.097Z,14.27
2023-04-06T02:31:12.597Z,14.20
2023-04-06T02:34:02.313Z,14.23
2023-04-06T02:36:49.645Z,14.65
2023-04-06T02:39:40.500Z,14.98
2023-04-06T02:42:30.787Z,13.63
2023-04-06T02:45:18.031Z,13.45
2023-04-06T02:48:05.753Z,13.68
2023-04-06T02:51:00.106Z,14.00
2023-04-06T02:53:47.529Z,13.60
2023-04-06T02:56:34.700Z,13.10
2023-04-06T02:59:21.992Z,13.52
2023-04-06T03:02:14.173Z,13.75
2023-04-06T03:05:01.443Z,13.07
2023-04-06T03:07:50.838Z,13.50
2023-04-06T03:10:38.240Z,12.10
2023-04-06T03:13:25.731Z,13.80
2023-04-06T03:16:12.984Z,14.48
2023-04-06T03:19:00.427Z,13.20
2023-04-06T03:21:48.249Z,14.35
2023-04-06T03:24:35.988Z,14.52
2023-04-06T03:27:23.342Z,15.32
2023-04-06T03:30:11.288Z,14.27
2023-04-06T03:32:58.569Z,14.57
2023-04-06T03:35:45.822Z,16.10
2023-04-06T03:38:50.906Z,15.02
2023-04-06T03:41:39.174Z,15.27
2023-04-06T03:44:26.476Z,15.25
2023-04-06T03:47:16.662Z,14.80
2023-04-06T03:50:06.909Z,15.27
2023-04-06T03:52:54.140Z,15.70
2023-04-06T03:55:43.438Z,14.70
2023-04-06T03:58:30.688Z,16.55
2023-04-06T04:01:21.951Z,15.70
2023-04-06T04:04:09.197Z,16.98
2023-04-06T04:07:02.094Z,16.00
2023-04-06T04:09:50.778Z,16.10
2023-04-06T04:12:44.655Z,16.75
2023-04-06T04:15:34.654Z,16.73
2023-04-06T04:18:25.248Z,15.95
2023-04-06T04:21:27.210Z,16.98
2023-04-06T04:24:16.608Z,13.23
2023-04-06T04:27:04.177Z,16.15
2023-04-06T04:31:05.584Z,17.05
2023-04-06T04:40:51.569Z,34.97
2023-04-06T04:44:57.337Z,32.20
2023-04-06T04:53:25.137Z,18.92
2023-04-06T05:03:45.941Z,16.95
2023-04-06T05:54:42.627Z,18.35
2023-04-06T05:57:30.441Z,17.25
2023-04-06T06:00:17.901Z,17.05
2023-04-06T06:03:12.697Z,17.08
2023-04-06T06:06:14.888Z,17.33
2023-04-06T06:09:43.754Z,15.48
2023-04-06T07:10:18.449Z,13.20
2023-04-06T07:13:08.162Z,12.15
2023-04-06T07:16:09.915Z,11.30
2023-04-06T07:18:57.434Z,11.30
2023-04-06T07:21:52.205Z,12.52
2023-04-06T07:24:42.277Z,10.88
2023-04-06T07:27:30.566Z,11.23
2023-04-06T07:30:22.624Z,10.75
2023-04-06T07:33:10.479Z,11.63
2023-04-06T07:36:02.177Z,10.90
2023-04-06T07:38:50.039Z,7.93
2023-04-06T07:41:40.887Z,9.77
2023-04-06T07:44:32.521Z,9.20
2023-04-06T07:47:19.835Z,9.38
2023-04-06T07:50:45.848Z,9.77
2023-04-06T07:53:34.733Z,9.18
2023-04-06T07:56:35.184Z,9.50
2023-04-06T07:59:23.888Z,9.50
2023-04-06T08:02:13.548Z,9.02
2023-04-06T08:05:00.985Z,9.60
2023-04-06T08:07:48.407Z,9.68
2023-04-06T08:10:43.121Z,9.57
2023-04-06T08:13:30.872Z,9.68
2023-04-06T08:16:18.601Z,8.75
2023-04-06T08:19:26.547Z,9.85
2023-04-06T08:24:06.833Z,9.73
2023-04-06T08:25:40.175Z,9.07
2023-04-06T08:29:59.187Z,8.38
2023-04-06T08:36:08.995Z,9.32
2023-04-06T08:38:59.774Z,8.75
2023-04-06T08:41:52.588Z,8.55
2023-04-06T08:44:43.610Z,9.68
2023-04-06T08:47:31.632Z,9.80
2023-04-06T08:50:27.311Z,9.50
2023-04-06T08:53:18.280Z,9.05
2023-04-06T08:56:06.316Z,9.05
2023-04-06T08:59:13.074Z,8.70
2023-04-06T09:05:23.434Z,9.10
2023-04-06T09:08:30.119Z,8.73
2023-04-06T09:11:21.776Z,8.48
2023-04-06T09:14:09.556Z,7.78
2023-04-06T09:16:57.276Z,6.45
2023-04-06T09:19:50.880Z,6.50
2023-04-06T09:22:39.748Z,7.30
2023-04-06T09:25:32.642Z,6.85
2023-04-06T09:28:30.374Z,7.30
2023-04-06T09:32:40.785Z,7.05
2023-04-06T09:36:25.328Z,6.25
2023-04-06T09:39:17.258Z,6.00
2023-04-06T09:42:32.264Z,5.85
2023-04-06T09:45:40.057Z,6.20
2023-04-06T09:48:55.422Z,6.20
2023-04-06T09:52:20.143Z,5.35
2023-04-06T09:55:10.931Z,6.72
2023-04-06T09:58:13.801Z,6.20
2023-04-06T10:04:15.888Z,5.63
2023-04-06T10:07:06.989Z,6.03
2023-04-06T10:09:55.457Z,6.30
2023-04-06T10:15:50.080Z,6.28
2023-04-06T10:18:40.977Z,7.18
2023-04-06T10:21:34.646Z,6.25
2023-04-06T10:24:22.312Z,6.65
2023-04-06T10:27:12.249Z,5.93
2023-04-06T10:34:50.572Z,7.20
2023-04-06T10:38:05.307Z,6.28
2023-04-06T10:40:54.649Z,6.53
2023-04-06T10:43:42.838Z,7.55
2023-04-06T10:46:43.590Z,6.97
2023-04-06T10:49:33.500Z,6.20
2023-04-06T10:52:25.257Z,6.20
2023-04-06T10:55:18.765Z,6.38
2023-04-06T10:58:10.100Z,6.65
2023-04-06T11:00:57.498Z,6.80
2023-04-06T11:04:14.260Z,6.65
2023-04-06T11:07:04.214Z,7.07
2023-04-06T11:10:11.283Z,7.07
2023-04-06T11:13:01.700Z,7.00
2023-04-06T11:15:50.225Z,5.95
2023-04-06T11:18:59.459Z,6.00
2023-04-06T11:21:50.800Z,6.15
2023-04-06T11:24:47.556Z,6.90
2023-04-06T11:27:37.340Z,6.32
2023-04-06T11:30:25.002Z,6.60
2023-04-06T11:33:31.688Z,6.70
2023-04-06T11:36:34.509Z,6.63
2023-04-06T11:39:27.996Z,5.97
2023-04-06T11:42:32.951Z,6.95
2023-04-06T11:45:31.309Z,5.88
2023-04-06T11:48:31.195Z,6.47
2023-04-06T11:54:49.920Z,6.25
2023-04-06T11:57:41.608Z,6.13
2023-04-06T12:03:43.345Z,6.53
2023-04-06T12:21:17.775Z,7.75
2023-04-06T12:27:23.242Z,7.45
2023-04-06T12:30:15.423Z,6.07
2023-04-06T12:33:05.928Z,5.43
2023-04-06T12:50:49.378Z,4.95
2023-04-06T12:53:39.024Z,5.22
2023-04-06T12:57:23.272Z,5.10
2023-04-06T13:00:16.491Z,5.43
2023-04-06T13:09:41.124Z,5.05
2023-04-06T13:12:32.739Z,4.18
2023-04-06T13:15:20.541Z,5.13
2023-04-06T13:18:08.724Z,4.70
2023-04-06T13:20:57.894Z,4.72
2023-04-06T13:23:49.513Z,5.07
2023-04-06T13:26:37.736Z,5.50
2023-04-06T13:29:26.277Z,5.30
2023-04-06T13:32:55.378Z,5.40
2023-04-06T13:35:51.143Z,5.20
2023-04-06T13:46:01.185Z,5.40
2023-04-06T13:48:55.470Z,4.90
2023-04-06T13:51:43.424Z,5.65
2023-04-06T13:57:45.964Z,5.20
2023-04-06T14:01:09.265Z,5.53
2023-04-06T14:03:56.806Z,6.45
2023-04-06T14:06:47.604Z,5.55
2023-04-06T14:09:45.837Z,4.93
2023-04-06T14:21:36.984Z,5.47
2023-04-06T14:24:24.703Z,5.80
2023-04-06T14:39:00.064Z,6.03
2023-04-06T14:41:51.528Z,5.97
2023-04-06T14:44:46.672Z,5.88
2023-04-06T14:47:43.711Z,6.80
2023-04-06T14:50:39.864Z,5.78
2023-04-06T14:53:29.779Z,6.15
2023-04-06T14:56:27.787Z,6.80
2023-04-06T14:59:15.284Z,6.20
2023-04-06T15:02:06.852Z,6.93
2023-04-06T15:04:55.035Z,6.95
2023-04-06T15:47:47.021Z,6.60
2023-04-06T16:07:03.645Z,5.93
2023-04-06T16:11:51.411Z,5.80
2023-04-06T18:23:14.329Z,5.35
2023-04-06T18:26:02.236Z,4.40
2023-04-06T18:32:23.110Z,3.33
2023-04-06T18:35:14.031Z,2.90
2023-04-06T18:38:04.387Z,3.05
2023-04-06T18:44:25.125Z,3.15
2023-04-06T18:48:01.234Z,3.50
2023-04-06T18:51:00.016Z,2.78
2023-04-06T19:01:04.175Z,4.22
2023-04-06T19:11:00.261Z,4.63
2023-04-06T19:13:50.632Z,4.18
2023-04-06T19:16:41.173Z,4.72
2023-04-06T19:19:29.005Z,3.90
2023-04-06T19:22:39.825Z,3.53
2023-04-06T19:25:27.081Z,3.95
2023-04-06T19:28:23.355Z,3.60
2023-04-06T19:31:14.250Z,3.92
2023-04-06T19:34:29.746Z,3.55
2023-04-06T19:37:33.032Z,3.65
2023-04-06T19:40:23.217Z,5.03
2023-04-06T19:43:20.002Z,4.50
2023-04-06T19:46:09.268Z,5.18
2023-04-06T19:48:56.890Z,6.45
2023-04-06T19:51:47.476Z,5.90
2023-04-06T19:54:43.530Z,6.00
2023-04-06T19:57:34.877Z,5.95
2023-04-06T20:00:46.099Z,6.20
2023-04-06T20:03:39.301Z,6.13
2023-04-06T20:06:29.457Z,6.68
2023-04-06T20:12:38.735Z,7.20
2023-04-06T20:15:26.153Z,6.65
2023-04-06T20:18:30.362Z,6.90
2023-04-06T20:21:22.721Z,6.47
2023-04-06T20:24:11.966Z,7.10
2023-04-06T20:27:12.702Z,6.80
2023-04-06T20:30:30.744Z,7.65
2023-04-06T20:33:31.680Z,7.00
2023-04-06T20:36:23.885Z,7.35
2023-04-06T20:39:20.638Z,7.90
2023-04-06T20:42:11.788Z,8.63
2023-04-06T20:45:08.907Z,8.30
2023-04-06T20:48:00.773Z,8.32
2023-04-06T20:50:53.506Z,6.68
2023-04-06T20:56:49.650Z,8.35
2023-04-06T20:59:38.498Z,8.05
2023-04-06T21:02:34.907Z,9.10
2023-04-06T21:05:25.270Z,8.38
2023-04-06T21:08:14.767Z,9.45
2023-04-06T21:11:05.333Z,9.98
2023-04-06T21:13:54.472Z,9.82
2023-04-06T21:16:42.104Z,10.85
2023-04-06T21:19:34.310Z,11.25
2023-04-06T21:22:30.757Z,8.05
2023-04-06T21:25:18.397Z,12.60
2023-04-06T21:28:17.408Z,12.43
2023-04-06T21:31:49.066Z,13.07
2023-04-06T21:34:51.242Z,12.70
2023-04-06T21:37:59.118Z,13.57
2023-04-06T21:40:56.986Z,13.48
2023-04-06T21:43:47.162Z,14.10
2023-04-06T21:46:43.601Z,14.93
2023-04-06T21:54:13.116Z,14.43
2023-04-06T21:57:33.718Z,15.00
2023-04-06T22:03:33.284Z,14.45
2023-04-06T22:07:04.395Z,14.23
2023-04-06T22:09:56.675Z,13.50
2023-04-06T22:12:47.323Z,15.02
2023-04-06T22:15:44.879Z,14.68
2023-04-06T22:18:33.553Z,15.23
2023-04-06T22:21:38.522Z,14.88
2023-04-06T22:24:26.920Z,15.10
2023-04-06T22:27:16.721Z,15.45
2023-04-06T22:33:34.264Z,16.17
2023-04-06T22:37:36.152Z,14.90
2023-04-06T23:00:14.220Z,14.45
2023-04-06T23:12:24.882Z,14.50
2023-04-06T23:36:23.396Z,14.63
